METAR Data
IDs: Format: Raw Decoded Include TAF

Data at: 1701 UTC 20 May 2022

METAR for:KORD (Chicago/O'Hare Intl, IL, US)
Text:KORD 201651Z 22016G29KT 10SM SCT030 SCT150 OVC250 26/19 A2944 RMK AO2 PK WND 23035/1630 SLP963 T02610189
Temperature: 26.1°C ( 79°F)
Dewpoint: 18.9°C ( 66°F) [RH = 65%]
Pressure (altimeter):29.44 inches Hg ( 997.0 mb) [Sea level pressure: 996.3 mb]
Winds:from the SW (220 degrees) at 18 MPH (16 knots; 8.2 m/s) gusting to 33 MPH (29 knots; 14.9 m/s)
Visibility:10 or more sm (16+ km)
Ceiling:25000 feet AGL
Clouds: scattered clouds at 3000 feet AGL, scattered clouds at 15000 feet AGL, overcast cloud deck at 25000 feet AGL